sensor_id;sensor_type;location;lat;lon;timestamp;pressure;altitude;pressure_sealevel;temperature;humidity
77147;BME280;66121;52.584;9.694;2023-02-15T00:01:36;102673.88;;;1.58;94.12
77147;BME280;66121;52.584;9.694;2023-02-15T00:04:02;102680.69;;;1.51;94.85
77147;BME280;66121;52.584;9.694;2023-02-15T00:06:28;102675.25;;;1.41;94.59
77147;BME280;66121;52.584;9.694;2023-02-15T00:08:54;102665.47;;;1.40;93.50
77147;BME280;66121;52.584;9.694;2023-02-15T00:11:20;102682.56;;;1.55;93.76
77147;BME280;66121;52.584;9.694;2023-02-15T00:14:12;102669.50;;;1.47;93.38
77147;BME280;66121;52.584;9.694;2023-02-15T00:16:39;102674.69;;;1.49;92.83
77147;BME280;66121;52.584;9.694;2023-02-15T00:19:05;102664.06;;;1.42;92.76
77147;BME280;66121;52.584;9.694;2023-02-15T00:21:32;102655.13;;;1.32;92.79
77147;BME280;66121;52.584;9.694;2023-02-15T00:23:59;102652.41;;;1.26;92.85
77147;BME280;66121;52.584;9.694;2023-02-15T00:26:25;102658.69;;;1.32;92.67
77147;BME280;66121;52.584;9.694;2023-02-15T00:28:51;102645.88;;;1.22;92.72
77147;BME280;66121;52.584;9.694;2023-02-15T00:31:16;102650.53;;;1.27;92.14
77147;BME280;66121;52.584;9.694;2023-02-15T00:33:41;102657.56;;;1.23;92.33
77147;BME280;66121;52.584;9.694;2023-02-15T00:36:09;102656.50;;;1.19;92.42
77147;BME280;66121;52.584;9.694;2023-02-15T00:38:35;102654.59;;;1.14;91.87
77147;BME280;66121;52.584;9.694;2023-02-15T00:41:02;102647.81;;;1.07;92.24
77147;BME280;66121;52.584;9.694;2023-02-15T00:43:30;102638.53;;;0.88;91.78
77147;BME280;66121;52.584;9.694;2023-02-15T00:45:56;102638.78;;;0.71;92.49
77147;BME280;66121;52.584;9.694;2023-02-15T00:48:22;102640.41;;;0.57;93.81
77147;BME280;66121;52.584;9.694;2023-02-15T00:50:53;102639.25;;;0.43;93.83
77147;BME280;66121;52.584;9.694;2023-02-15T00:53:19;102643.88;;;0.47;93.50
77147;BME280;66121;52.584;9.694;2023-02-15T00:55:45;102641.72;;;0.39;93.79
77147;BME280;66121;52.584;9.694;2023-02-15T00:58:11;102631.66;;;0.30;93.32
77147;BME280;66121;52.584;9.694;2023-02-15T01:00:37;102646.56;;;0.27;93.92
77147;BME280;66121;52.584;9.694;2023-02-15T01:03:04;102651.41;;;0.25;93.37
77147;BME280;66121;52.584;9.694;2023-02-15T01:05:30;102640.53;;;0.20;92.86
77147;BME280;66121;52.584;9.694;2023-02-15T01:07:56;102644.88;;;0.16;93.24
77147;BME280;66121;52.584;9.694;2023-02-15T01:10:21;102635.91;;;0.11;93.49
77147;BME280;66121;52.584;9.694;2023-02-15T01:12:47;102629.63;;;0.00;93.10
77147;BME280;66121;52.584;9.694;2023-02-15T01:15:12;102625.00;;;0.00;92.59
77147;BME280;66121;52.584;9.694;2023-02-15T01:17:38;102622.84;;;0.03;93.20
77147;BME280;66121;52.584;9.694;2023-02-15T01:20:04;102627.47;;;0.02;93.45
77147;BME280;66121;52.584;9.694;2023-02-15T01:22:29;102616.28;;;-0.07;93.18
77147;BME280;66121;52.584;9.694;2023-02-15T01:24:55;102611.66;;;-0.11;92.99
77147;BME280;66121;52.584;9.694;2023-02-15T01:27:20;102617.38;;;-0.08;93.67
77147;BME280;66121;52.584;9.694;2023-02-15T01:29:45;102611.09;;;-0.18;93.51
77147;BME280;66121;52.584;9.694;2023-02-15T01:32:12;102607.00;;;-0.26;93.07
77147;BME280;66121;52.584;9.694;2023-02-15T01:34:37;102620.06;;;-0.18;93.42
77147;BME280;66121;52.584;9.694;2023-02-15T01:37:02;102613.28;;;-0.15;93.53
77147;BME280;66121;52.584;9.694;2023-02-15T01:39:28;102607.03;;;-0.16;92.35
77147;BME280;66121;52.584;9.694;2023-02-15T01:41:53;102621.72;;;-0.07;92.50
77147;BME280;66121;52.584;9.694;2023-02-15T01:44:48;102626.91;;;-0.05;92.27
77147;BME280;66121;52.584;9.694;2023-02-15T01:47:25;102611.38;;;-0.10;91.61
77147;BME280;66121;52.584;9.694;2023-02-15T01:50:00;102614.88;;;-0.19;91.83
77147;BME280;66121;52.584;9.694;2023-02-15T01:52:27;102609.09;;;-0.38;92.15
77147;BME280;66121;52.584;9.694;2023-02-15T01:54:52;102600.59;;;-0.51;92.46
77147;BME280;66121;52.584;9.694;2023-02-15T01:57:20;102607.97;;;-0.42;93.50
77147;BME280;66121;52.584;9.694;2023-02-15T01:59:51;102596.88;;;-0.40;92.49
77147;BME280;66121;52.584;9.694;2023-02-15T02:02:18;102604.00;;;-0.24;92.23
77147;BME280;66121;52.584;9.694;2023-02-15T02:04:53;102601.25;;;-0.29;91.46
77147;BME280;66121;52.584;9.694;2023-02-15T02:07:22;102590.13;;;-0.33;92.03
77147;BME280;66121;52.584;9.694;2023-02-15T02:09:48;102587.09;;;-0.41;92.22
77147;BME280;66121;52.584;9.694;2023-02-15T02:12:16;102584.94;;;-0.39;91.25
77147;BME280;66121;52.584;9.694;2023-02-15T02:14:42;102591.50;;;-0.30;91.91
77147;BME280;66121;52.584;9.694;2023-02-15T02:17:16;102579.00;;;-0.36;90.84
77147;BME280;66121;52.584;9.694;2023-02-15T02:25:59;102579.25;;;-0.43;91.44
77147;BME280;66121;52.584;9.694;2023-02-15T02:29:03;102576.44;;;-0.58;91.81
77147;BME280;66121;52.584;9.694;2023-02-15T02:34:56;102559.38;;;-0.53;91.74
77147;BME280;66121;52.584;9.694;2023-02-15T02:37:34;102551.19;;;-0.63;91.40
77147;BME280;66121;52.584;9.694;2023-02-15T02:42:49;102546.28;;;-0.67;91.32
77147;BME280;66121;52.584;9.694;2023-02-15T02:45:32;102538.13;;;-0.72;91.55
77147;BME280;66121;52.584;9.694;2023-02-15T02:48:15;102537.56;;;-0.79;91.36
77147;BME280;66121;52.584;9.694;2023-02-15T02:50:42;102527.78;;;-0.80;91.49
77147;BME280;66121;52.584;9.694;2023-02-15T02:53:09;102542.50;;;-0.71;91.61
77147;BME280;66121;52.584;9.694;2023-02-15T02:55:42;102532.69;;;-0.77;91.66
77147;BME280;66121;52.584;9.694;2023-02-15T03:00:57;102530.25;;;-0.78;92.52
77147;BME280;66121;52.584;9.694;2023-02-15T03:03:34;102527.19;;;-0.87;92.36
77147;BME280;66121;52.584;9.694;2023-02-15T03:06:04;102526.69;;;-0.84;93.06
77147;BME280;66121;52.584;9.694;2023-02-15T03:08:36;102525.38;;;-0.76;92.55
77147;BME280;66121;52.584;9.694;2023-02-15T03:11:04;102529.41;;;-0.79;92.68
77147;BME280;66121;52.584;9.694;2023-02-15T03:13:30;102518.03;;;-0.81;92.45
77147;BME280;66121;52.584;9.694;2023-02-15T03:15:58;102518.59;;;-0.79;92.01
77147;BME280;66121;52.584;9.694;2023-02-15T03:18:46;102511.25;;;-0.83;91.68
77147;BME280;66121;52.584;9.694;2023-02-15T03:21:19;102509.34;;;-0.83;91.45
77147;BME280;66121;52.584;9.694;2023-02-15T03:23:51;102512.81;;;-0.87;91.31
77147;BME280;66121;52.584;9.694;2023-02-15T03:26:17;102518.06;;;-0.76;90.54
77147;BME280;66121;52.584;9.694;2023-02-15T03:28:46;102512.59;;;-0.86;91.18
77147;BME280;66121;52.584;9.694;2023-02-15T03:31:14;102517.25;;;-0.76;90.17
77147;BME280;66121;52.584;9.694;2023-02-15T03:33:45;102525.66;;;-0.78;91.02
77147;BME280;66121;52.584;9.694;2023-02-15T03:41:55;102506.84;;;-0.94;90.53
77147;BME280;66121;52.584;9.694;2023-02-15T03:44:30;102524.25;;;-0.85;90.25
77147;BME280;66121;52.584;9.694;2023-02-15T03:47:09;102518.22;;;-0.92;90.94
77147;BME280;66121;52.584;9.694;2023-02-15T03:52:49;102531.66;;;-0.66;89.80
77147;BME280;66121;52.584;9.694;2023-02-15T03:55:15;102544.44;;;-0.61;89.19
77147;BME280;66121;52.584;9.694;2023-02-15T03:57:40;102533.31;;;-0.59;89.37
77147;BME280;66121;52.584;9.694;2023-02-15T04:00:25;102514.69;;;-0.98;88.08
77147;BME280;66121;52.584;9.694;2023-02-15T04:03:23;102520.84;;;-1.07;89.75
77147;BME280;66121;52.584;9.694;2023-02-15T04:05:53;102505.94;;;-1.10;89.60
77147;BME280;66121;52.584;9.694;2023-02-15T04:08:18;102509.72;;;-1.11;90.27
77147;BME280;66121;52.584;9.694;2023-02-15T04:10:43;102484.97;;;-1.24;89.84
77147;BME280;66121;52.584;9.694;2023-02-15T04:13:23;102510.06;;;-1.02;90.64
77147;BME280;66121;52.584;9.694;2023-02-15T04:15:49;102491.31;;;-1.09;91.06
77147;BME280;66121;52.584;9.694;2023-02-15T04:18:41;102496.53;;;-0.97;89.92
77147;BME280;66121;52.584;9.694;2023-02-15T04:21:28;102499.47;;;-1.04;90.93
77147;BME280;66121;52.584;9.694;2023-02-15T04:24:13;102497.81;;;-1.10;91.12
77147;BME280;66121;52.584;9.694;2023-02-15T04:26:58;102490.19;;;-1.13;91.12
77147;BME280;66121;52.584;9.694;2023-02-15T04:29:24;102485.59;;;-1.12;90.38
77147;BME280;66121;52.584;9.694;2023-02-15T04:31:51;102497.81;;;-1.10;90.58
77147;BME280;66121;52.584;9.694;2023-02-15T04:34:16;102496.38;;;-1.22;90.62
77147;BME280;66121;52.584;9.694;2023-02-15T04:36:42;102496.63;;;-1.24;89.88
77147;BME280;66121;52.584;9.694;2023-02-15T04:39:08;102483.50;;;-1.42;90.99
77147;BME280;66121;52.584;9.694;2023-02-15T04:41:34;102487.53;;;-1.45;89.96
77147;BME280;66121;52.584;9.694;2023-02-15T04:44:00;102470.31;;;-1.65;91.45
77147;BME280;66121;52.584;9.694;2023-02-15T04:46:27;102478.47;;;-1.60;91.98
77147;BME280;66121;52.584;9.694;2023-02-15T04:48:52;102479.38;;;-1.50;90.60
77147;BME280;66121;52.584;9.694;2023-02-15T04:51:18;102470.22;;;-1.44;90.31
77147;BME280;66121;52.584;9.694;2023-02-15T04:53:43;102469.63;;;-1.51;90.71
77147;BME280;66121;52.584;9.694;2023-02-15T04:56:08;102468.16;;;-1.63;90.64
77147;BME280;66121;52.584;9.694;2023-02-15T04:58:34;102464.13;;;-1.61;89.95
77147;BME280;66121;52.584;9.694;2023-02-15T05:01:00;102476.28;;;-1.63;89.19
77147;BME280;66121;52.584;9.694;2023-02-15T05:03:26;102451.47;;;-1.82;90.66
77147;BME280;66121;52.584;9.694;2023-02-15T05:05:51;102463.53;;;-1.68;90.21
77147;BME280;66121;52.584;9.694;2023-02-15T05:08:16;102440.50;;;-1.70;90.78
77147;BME280;66121;52.584;9.694;2023-02-15T05:10:42;102451.31;;;-1.70;89.86
77147;BME280;66121;52.584;9.694;2023-02-15T05:13:07;102449.94;;;-1.73;90.98
77147;BME280;66121;52.584;9.694;2023-02-15T05:15:33;102452.97;;;-1.64;90.47
77147;BME280;66121;52.584;9.694;2023-02-15T05:17:59;102434.59;;;-1.67;90.61
77147;BME280;66121;52.584;9.694;2023-02-15T05:20:26;102459.53;;;-1.60;91.21
77147;BME280;66121;52.584;9.694;2023-02-15T05:22:55;102447.03;;;-1.66;90.21
77147;BME280;66121;52.584;9.694;2023-02-15T05:25:20;102449.22;;;-1.63;90.61
77147;BME280;66121;52.584;9.694;2023-02-15T05:28:04;102443.84;;;-1.58;90.14
77147;BME280;66121;52.584;9.694;2023-02-15T05:30:47;102443.88;;;-1.53;90.39
77147;BME280;66121;52.584;9.694;2023-02-15T05:33:13;102442.47;;;-1.61;90.00
77147;BME280;66121;52.584;9.694;2023-02-15T05:35:38;102431.09;;;-1.63;90.65
77147;BME280;66121;52.584;9.694;2023-02-15T05:38:04;102433.38;;;-1.50;90.21
77147;BME280;66121;52.584;9.694;2023-02-15T05:40:29;102425.72;;;-1.58;89.75
77147;BME280;66121;52.584;9.694;2023-02-15T05:42:55;102435.72;;;-1.58;89.88
77147;BME280;66121;52.584;9.694;2023-02-15T05:45:21;102440.00;;;-1.67;90.26
77147;BME280;66121;52.584;9.694;2023-02-15T05:47:46;102438.66;;;-1.65;89.73
77147;BME280;66121;52.584;9.694;2023-02-15T05:50:11;102433.22;;;-1.70;89.90
77147;BME280;66121;52.584;9.694;2023-02-15T05:52:37;102438.34;;;-1.68;90.44
77147;BME280;66121;52.584;9.694;2023-02-15T05:55:03;102445.50;;;-1.57;89.65
77147;BME280;66121;52.584;9.694;2023-02-15T05:57:29;102445.19;;;-1.61;88.70
77147;BME280;66121;52.584;9.694;2023-02-15T05:59:54;102451.09;;;-1.64;90.07
77147;BME280;66121;52.584;9.694;2023-02-15T06:02:20;102441.31;;;-1.70;89.52
77147;BME280;66121;52.584;9.694;2023-02-15T06:04:45;102460.09;;;-1.58;89.15
77147;BME280;66121;52.584;9.694;2023-02-15T06:07:10;102461.88;;;-1.69;88.87
77147;BME280;66121;52.584;9.694;2023-02-15T06:09:36;102459.97;;;-1.73;89.19
77147;BME280;66121;52.584;9.694;2023-02-15T06:12:01;102455.59;;;-1.74;89.02
77147;BME280;66121;52.584;9.694;2023-02-15T06:14:26;102452.03;;;-1.85;89.35
77147;BME280;66121;52.584;9.694;2023-02-15T06:16:52;102456.97;;;-2.04;90.10
77147;BME280;66121;52.584;9.694;2023-02-15T06:19:17;102443.00;;;-2.22;89.61
77147;BME280;66121;52.584;9.694;2023-02-15T06:21:43;102438.34;;;-2.27;90.61
77147;BME280;66121;52.584;9.694;2023-02-15T06:24:09;102447.16;;;-2.15;89.77
77147;BME280;66121;52.584;9.694;2023-02-15T06:26:34;102437.66;;;-2.17;90.60
77147;BME280;66121;52.584;9.694;2023-02-15T06:28:59;102447.03;;;-1.98;89.81
77147;BME280;66121;52.584;9.694;2023-02-15T06:31:25;102440.00;;;-1.94;89.67
77147;BME280;66121;52.584;9.694;2023-02-15T06:33:50;102432.16;;;-1.96;89.87
77147;BME280;66121;52.584;9.694;2023-02-15T06:36:15;102441.97;;;-1.89;89.57
77147;BME280;66121;52.584;9.694;2023-02-15T06:38:41;102445.56;;;-1.79;89.07
77147;BME280;66121;52.584;9.694;2023-02-15T06:41:06;102436.84;;;-1.86;88.76
77147;BME280;66121;52.584;9.694;2023-02-15T06:43:31;102436.03;;;-1.86;89.03
77147;BME280;66121;52.584;9.694;2023-02-15T06:45:57;102442.47;;;-1.92;88.32
77147;BME280;66121;52.584;9.694;2023-02-15T06:48:23;102429.16;;;-1.99;89.09
77147;BME280;66121;52.584;9.694;2023-02-15T06:50:48;102432.22;;;-1.90;88.34
77147;BME280;66121;52.584;9.694;2023-02-15T06:53:14;102430.09;;;-1.83;89.11
77147;BME280;66121;52.584;9.694;2023-02-15T06:55:39;102424.19;;;-1.80;89.04
77147;BME280;66121;52.584;9.694;2023-02-15T06:58:05;102406.50;;;-1.93;88.92
77147;BME280;66121;52.584;9.694;2023-02-15T07:00:30;102428.31;;;-1.73;89.43
77147;BME280;66121;52.584;9.694;2023-02-15T07:02:56;102424.81;;;-1.68;89.17
77147;BME280;66121;52.584;9.694;2023-02-15T07:05:26;102428.31;;;-1.73;89.56
77147;BME280;66121;52.584;9.694;2023-02-15T07:07:56;102434.81;;;-1.69;89.12
77147;BME280;66121;52.584;9.694;2023-02-15T07:10:22;102424.22;;;-1.75;89.00
77147;BME280;66121;52.584;9.694;2023-02-15T07:12:47;102435.38;;;-1.67;89.08
77147;BME280;66121;52.584;9.694;2023-02-15T07:15:15;102447.63;;;-1.59;89.00
77147;BME280;66121;52.584;9.694;2023-02-15T07:17:42;102444.41;;;-1.56;88.56
77147;BME280;66121;52.584;9.694;2023-02-15T07:20:16;102452.28;;;-1.55;88.71
77147;BME280;66121;52.584;9.694;2023-02-15T07:22:41;102456.34;;;-1.52;88.39
77147;BME280;66121;52.584;9.694;2023-02-15T07:25:09;102449.97;;;-1.36;87.54
77147;BME280;66121;52.584;9.694;2023-02-15T07:27:34;102453.66;;;-1.10;88.33
77147;BME280;66121;52.584;9.694;2023-02-15T07:30:00;102451.84;;;-0.90;86.40
77147;BME280;66121;52.584;9.694;2023-02-15T07:32:32;102450.28;;;-0.81;87.39
77147;BME280;66121;52.584;9.694;2023-02-15T07:34:58;102451.13;;;-0.75;87.09
77147;BME280;66121;52.584;9.694;2023-02-15T07:37:24;102451.44;;;-0.61;87.13
77147;BME280;66121;52.584;9.694;2023-02-15T07:39:50;102440.34;;;-0.65;87.25
77147;BME280;66121;52.584;9.694;2023-02-15T07:42:15;102451.97;;;-0.65;86.15
77147;BME280;66121;52.584;9.694;2023-02-15T07:44:40;102446.84;;;-0.61;87.92
77147;BME280;66121;52.584;9.694;2023-02-15T07:47:06;102439.44;;;-0.86;87.85
77147;BME280;66121;52.584;9.694;2023-02-15T07:49:31;102434.28;;;-0.82;88.87
77147;BME280;66121;52.584;9.694;2023-02-15T07:51:56;102425.66;;;-0.69;88.83
77147;BME280;66121;52.584;9.694;2023-02-15T07:54:22;102454.44;;;-0.58;87.73
77147;BME280;66121;52.584;9.694;2023-02-15T07:56:47;102433.03;;;-0.54;88.40
77147;BME280;66121;52.584;9.694;2023-02-15T07:59:13;102435.75;;;-0.49;89.04
77147;BME280;66121;52.584;9.694;2023-02-15T08:01:39;102426.06;;;-0.35;88.13
77147;BME280;66121;52.584;9.694;2023-02-15T08:04:06;102419.22;;;-0.53;88.56
77147;BME280;66121;52.584;9.694;2023-02-15T08:06:34;102420.00;;;-0.62;90.63
77147;BME280;66121;52.584;9.694;2023-02-15T08:09:00;102411.91;;;-0.57;90.26
77147;BME280;66121;52.584;9.694;2023-02-15T08:11:27;102410.56;;;-0.45;89.84
77147;BME280;66121;52.584;9.694;2023-02-15T08:14:10;102409.78;;;-0.35;90.62
77147;BME280;66121;52.584;9.694;2023-02-15T08:16:40;102403.81;;;-0.27;90.20
77147;BME280;66121;52.584;9.694;2023-02-15T08:21:34;102393.28;;;-0.09;90.21
77147;BME280;66121;52.584;9.694;2023-02-15T08:24:01;102393.00;;;-0.07;90.78
77147;BME280;66121;52.584;9.694;2023-02-15T08:26:27;102388.91;;;-0.10;90.99
77147;BME280;66121;52.584;9.694;2023-02-15T08:28:53;102381.34;;;-0.13;91.22
77147;BME280;66121;52.584;9.694;2023-02-15T08:31:19;102386.50;;;-0.01;91.76
77147;BME280;66121;52.584;9.694;2023-02-15T08:33:46;102384.31;;;0.06;92.14
77147;BME280;66121;52.584;9.694;2023-02-15T08:36:14;102370.22;;;0.04;91.64
77147;BME280;66121;52.584;9.694;2023-02-15T08:38:41;102373.75;;;0.15;91.71
77147;BME280;66121;52.584;9.694;2023-02-15T08:41:19;102380.53;;;0.32;92.24
77147;BME280;66121;52.584;9.694;2023-02-15T08:43:46;102381.88;;;0.40;91.79
77147;BME280;66121;52.584;9.694;2023-02-15T08:46:13;102384.00;;;0.53;92.72
77147;BME280;66121;52.584;9.694;2023-02-15T08:48:38;102373.41;;;0.61;92.46
77147;BME280;66121;52.584;9.694;2023-02-15T08:51:06;102382.63;;;0.60;92.71
77147;BME280;66121;52.584;9.694;2023-02-15T08:53:31;102369.56;;;0.68;92.08
77147;BME280;66121;52.584;9.694;2023-02-15T08:55:58;102373.84;;;0.99;91.58
77147;BME280;66121;52.584;9.694;2023-02-15T08:58:23;102374.34;;;1.06;91.87
77147;BME280;66121;52.584;9.694;2023-02-15T09:00:49;102369.38;;;1.23;91.71
77147;BME280;66121;52.584;9.694;2023-02-15T09:03:14;102364.19;;;1.26;92.44
77147;BME280;66121;52.584;9.694;2023-02-15T09:05:40;102379.94;;;1.35;91.74
77147;BME280;66121;52.584;9.694;2023-02-15T09:08:05;102379.38;;;1.33;91.30
77147;BME280;66121;52.584;9.694;2023-02-15T09:10:31;102377.44;;;1.38;91.50
77147;BME280;66121;52.584;9.694;2023-02-15T09:12:56;102378.44;;;1.52;91.62
77147;BME280;66121;52.584;9.694;2023-02-15T09:15:21;102376.13;;;1.79;90.76
77147;BME280;66121;52.584;9.694;2023-02-15T09:17:47;102376.66;;;2.44;88.23
77147;BME280;66121;52.584;9.694;2023-02-15T09:20:12;102363.34;;;2.66;87.16
77147;BME280;66121;52.584;9.694;2023-02-15T09:22:37;102364.78;;;3.06;85.94
77147;BME280;66121;52.584;9.694;2023-02-15T09:25:03;102371.19;;;3.57;83.92
77147;BME280;66121;52.584;9.694;2023-02-15T09:27:29;102371.34;;;4.17;82.53
77147;BME280;66121;52.584;9.694;2023-02-15T09:29:54;102370.97;;;4.23;81.61
77147;BME280;66121;52.584;9.694;2023-02-15T09:32:20;102368.00;;;4.66;81.20
77147;BME280;66121;52.584;9.694;2023-02-15T09:34:47;102352.00;;;5.13;79.96
77147;BME280;66121;52.584;9.694;2023-02-15T09:37:12;102347.69;;;5.48;77.81
77147;BME280;66121;52.584;9.694;2023-02-15T09:39:39;102367.63;;;5.98;77.57
77147;BME280;66121;52.584;9.694;2023-02-15T09:45:16;102353.25;;;6.23;74.79
77147;BME280;66121;52.584;9.694;2023-02-15T09:58:16;102346.75;;;7.29;73.62
77147;BME280;66121;52.584;9.694;2023-02-15T10:01:00;102359.69;;;7.37;74.51
77147;BME280;66121;52.584;9.694;2023-02-15T10:09:02;102359.84;;;8.81;69.00
77147;BME280;66121;52.584;9.694;2023-02-15T10:11:44;102354.53;;;9.14;68.23
77147;BME280;66121;52.584;9.694;2023-02-15T10:14:21;102360.00;;;9.22;70.90
77147;BME280;66121;52.584;9.694;2023-02-15T10:22:41;102357.66;;;9.53;66.12
77147;BME280;66121;52.584;9.694;2023-02-15T10:27:49;102355.28;;;10.05;66.14
77147;BME280;66121;52.584;9.694;2023-02-15T10:30:17;102360.34;;;10.24;66.10
77147;BME280;66121;52.584;9.694;2023-02-15T10:33:00;102351.16;;;10.11;65.42
77147;BME280;66121;52.584;9.694;2023-02-15T10:36:19;102360.06;;;9.96;65.35
77147;BME280;66121;52.584;9.694;2023-02-15T10:47:06;102343.91;;;10.07;63.85
77147;BME280;66121;52.584;9.694;2023-02-15T10:52:29;102340.78;;;9.96;63.06
77147;BME280;66121;52.584;9.694;2023-02-15T10:55:18;102337.19;;;10.73;64.39
77147;BME280;66121;52.584;9.694;2023-02-15T11:06:19;102326.44;;;10.35;62.96
77147;BME280;66121;52.584;9.694;2023-02-15T11:08:56;102327.19;;;10.57;63.07
77147;BME280;66121;52.584;9.694;2023-02-15T11:11:29;102317.75;;;10.70;62.86
77147;BME280;66121;52.584;9.694;2023-02-15T11:14:02;102323.16;;;11.02;63.61
77147;BME280;66121;52.584;9.694;2023-02-15T11:16:33;102318.63;;;11.34;60.35
77147;BME280;66121;52.584;9.694;2023-02-15T11:19:12;102329.66;;;11.34;58.73
77147;BME280;66121;52.584;9.694;2023-02-15T11:21:44;102315.88;;;11.74;60.99
77147;BME280;66121;52.584;9.694;2023-02-15T11:24:12;102319.38;;;11.47;57.47
77147;BME280;66121;52.584;9.694;2023-02-15T11:26:54;102317.88;;;11.61;55.15
77147;BME280;66121;52.584;9.694;2023-02-15T11:29:22;102316.88;;;11.54;56.60
77147;BME280;66121;52.584;9.694;2023-02-15T11:31:56;102310.31;;;11.46;58.71
77147;BME280;66121;52.584;9.694;2023-02-15T11:34:35;102307.75;;;11.53;59.92
77147;BME280;66121;52.584;9.694;2023-02-15T11:37:08;102315.28;;;12.08;59.64
77147;BME280;66121;52.584;9.694;2023-02-15T11:39:35;102308.25;;;12.26;57.91
77147;BME280;66121;52.584;9.694;2023-02-15T11:42:05;102300.78;;;12.43;57.91
77147;BME280;66121;52.584;9.694;2023-02-15T11:44:39;102301.97;;;11.98;55.62
77147;BME280;66121;52.584;9.694;2023-02-15T11:47:11;102284.72;;;12.48;55.93
77147;BME280;66121;52.584;9.694;2023-02-15T11:49:36;102296.09;;;12.15;54.70
77147;BME280;66121;52.584;9.694;2023-02-15T11:52:10;102297.28;;;11.87;54.75
77147;BME280;66121;52.584;9.694;2023-02-15T11:54:41;102294.56;;;11.75;54.50
77147;BME280;66121;52.584;9.694;2023-02-15T11:57:27;102296.59;;;11.50;55.50
77147;BME280;66121;52.584;9.694;2023-02-15T12:00:02;102281.66;;;12.06;56.19
77147;BME280;66121;52.584;9.694;2023-02-15T12:02:31;102289.66;;;11.56;54.72
77147;BME280;66121;52.584;9.694;2023-02-15T12:05:03;102290.13;;;12.13;55.56
77147;BME280;66121;52.584;9.694;2023-02-15T12:07:36;102276.78;;;11.88;57.29
77147;BME280;66121;52.584;9.694;2023-02-15T12:12:45;102274.59;;;12.24;54.13
77147;BME280;66121;52.584;9.694;2023-02-15T12:15:12;102279.34;;;12.55;52.93
77147;BME280;66121;52.584;9.694;2023-02-15T12:17:40;102269.47;;;11.95;53.84
77147;BME280;66121;52.584;9.694;2023-02-15T12:20:21;102271.75;;;12.21;53.23
77147;BME280;66121;52.584;9.694;2023-02-15T12:22:55;102266.59;;;11.64;54.13
77147;BME280;66121;52.584;9.694;2023-02-15T12:25:36;102264.41;;;11.57;55.22
77147;BME280;66121;52.584;9.694;2023-02-15T12:28:03;102265.41;;;11.77;54.63
77147;BME280;66121;52.584;9.694;2023-02-15T12:30:32;102256.59;;;11.72;54.34
77147;BME280;66121;52.584;9.694;2023-02-15T12:35:42;102259.78;;;12.64;53.49
77147;BME280;66121;52.584;9.694;2023-02-15T12:40:34;102245.66;;;12.69;52.80
77147;BME280;66121;52.584;9.694;2023-02-15T12:43:00;102238.88;;;12.66;53.08
77147;BME280;66121;52.584;9.694;2023-02-15T12:45:35;102240.47;;;12.67;51.35
77147;BME280;66121;52.584;9.694;2023-02-15T12:50:39;102246.34;;;12.81;51.93
77147;BME280;66121;52.584;9.694;2023-02-15T12:55:56;102243.72;;;12.54;51.76
77147;BME280;66121;52.584;9.694;2023-02-15T12:58:24;102237.53;;;12.76;50.97
77147;BME280;66121;52.584;9.694;2023-02-15T13:03:35;102233.16;;;13.10;49.63
77147;BME280;66121;52.584;9.694;2023-02-15T13:06:02;102219.44;;;12.82;50.62
77147;BME280;66121;52.584;9.694;2023-02-15T13:08:35;102231.78;;;13.19;48.64
77147;BME280;66121;52.584;9.694;2023-02-15T13:11:07;102225.22;;;13.08;50.15
77147;BME280;66121;52.584;9.694;2023-02-15T13:13:47;102217.34;;;13.68;47.70
77147;BME280;66121;52.584;9.694;2023-02-15T13:16:16;102210.50;;;13.84;47.93
77147;BME280;66121;52.584;9.694;2023-02-15T13:18:46;102209.09;;;13.94;47.87
77147;BME280;66121;52.584;9.694;2023-02-15T13:23:37;102215.19;;;14.71;46.60
77147;BME280;66121;52.584;9.694;2023-02-15T13:26:11;102205.13;;;14.89;45.51
77147;BME280;66121;52.584;9.694;2023-02-15T13:28:41;102212.19;;;13.89;45.72
77147;BME280;66121;52.584;9.694;2023-02-15T13:31:18;102196.53;;;14.23;46.66
77147;BME280;66121;52.584;9.694;2023-02-15T13:33:51;102192.22;;;14.02;46.94
77147;BME280;66121;52.584;9.694;2023-02-15T13:56:16;102180.88;;;16.26;41.61
77147;BME280;66121;52.584;9.694;2023-02-15T14:01:46;102173.69;;;15.44;42.25
77147;BME280;66121;52.584;9.694;2023-02-15T14:04:33;102182.28;;;14.73;44.27
77147;BME280;66121;52.584;9.694;2023-02-15T14:07:14;102179.44;;;14.69;45.99
77147;BME280;66121;52.584;9.694;2023-02-15T14:10:21;102176.09;;;13.89;46.29
77147;BME280;66121;52.584;9.694;2023-02-15T14:15:49;102174.97;;;13.29;49.34
77147;BME280;66121;52.584;9.694;2023-02-15T14:18:44;102158.00;;;13.11;49.36
77147;BME280;66121;52.584;9.694;2023-02-15T14:21:31;102161.03;;;12.37;50.07
77147;BME280;66121;52.584;9.694;2023-02-15T14:31:50;102154.00;;;12.93;50.29
77147;BME280;66121;52.584;9.694;2023-02-15T14:34:27;102150.13;;;12.78;51.09
77147;BME280;66121;52.584;9.694;2023-02-15T14:36:55;102150.63;;;12.49;51.22
77147;BME280;66121;52.584;9.694;2023-02-15T14:39:30;102149.88;;;12.17;52.48
77147;BME280;66121;52.584;9.694;2023-02-15T14:43:06;102152.41;;;11.91;52.99
77147;BME280;66121;52.584;9.694;2023-02-15T14:45:49;102153.50;;;11.59;53.00
77147;BME280;66121;52.584;9.694;2023-02-15T14:48:22;102148.88;;;11.63;53.84
77147;BME280;66121;52.584;9.694;2023-02-15T14:50:50;102141.34;;;11.48;54.77
77147;BME280;66121;52.584;9.694;2023-02-15T14:55:42;102158.44;;;11.10;56.29
77147;BME280;66121;52.584;9.694;2023-02-15T14:58:12;102157.91;;;10.92;56.12
77147;BME280;66121;52.584;9.694;2023-02-15T15:00:40;102158.38;;;10.94;55.64
77147;BME280;66121;52.584;9.694;2023-02-15T15:03:20;102156.66;;;10.90;56.66
77147;BME280;66121;52.584;9.694;2023-02-15T15:05:51;102153.56;;;10.79;56.84
77147;BME280;66121;52.584;9.694;2023-02-15T15:08:47;102156.59;;;10.62;56.42
77147;BME280;66121;52.584;9.694;2023-02-15T15:18:58;102165.94;;;10.58;57.29
77147;BME280;66121;52.584;9.694;2023-02-15T15:39:02;102140.41;;;10.12;60.34
77147;BME280;66121;52.584;9.694;2023-02-15T15:41:53;102135.09;;;9.95;61.20